sensor_id;sensor_type;location;lat;lon;timestamp;temperature;humidity
20862;DHT22;10591;52.532;13.348;2023-04-16T00:02:21;9.69;89.22
20862;DHT22;10591;52.532;13.348;2023-04-16T00:04:51;9.62;89.20
20862;DHT22;10591;52.532;13.348;2023-04-16T00:07:22;9.69;89.18
20862;DHT22;10591;52.532;13.348;2023-04-16T00:09:54;9.72;89.22
20862;DHT22;10591;52.532;13.348;2023-04-16T00:12:27;9.80;89.17
20862;DHT22;10591;52.532;13.348;2023-04-16T00:14:58;9.70;89.08
20862;DHT22;10591;52.532;13.348;2023-04-16T00:17:29;9.68;89.10
20862;DHT22;10591;52.532;13.348;2023-04-16T00:20:00;9.65;89.16
20862;DHT22;10591;52.532;13.348;2023-04-16T00:22:32;9.63;89.22
20862;DHT22;10591;52.532;13.348;2023-04-16T00:25:04;9.62;89.24
20862;DHT22;10591;52.532;13.348;2023-04-16T00:27:37;9.76;89.23
20862;DHT22;10591;52.532;13.348;2023-04-16T00:30:10;9.72;89.20
20862;DHT22;10591;52.532;13.348;2023-04-16T00:32:42;9.72;89.08
20862;DHT22;10591;52.532;13.348;2023-04-16T00:35:13;9.65;89.21
20862;DHT22;10591;52.532;13.348;2023-04-16T00:37:46;9.68;89.24
20862;DHT22;10591;52.532;13.348;2023-04-16T00:40:17;9.70;89.22
20862;DHT22;10591;52.532;13.348;2023-04-16T00:42:48;9.60;89.23
20862;DHT22;10591;52.532;13.348;2023-04-16T00:45:25;9.70;89.17
20862;DHT22;10591;52.532;13.348;2023-04-16T00:47:58;9.65;89.18
20862;DHT22;10591;52.532;13.348;2023-04-16T00:50:30;9.57;89.23
20862;DHT22;10591;52.532;13.348;2023-04-16T00:53:03;9.55;89.27
20862;DHT22;10591;52.532;13.348;2023-04-16T00:55:34;9.54;89.25
20862;DHT22;10591;52.532;13.348;2023-04-16T00:58:06;9.58;89.23
20862;DHT22;10591;52.532;13.348;2023-04-16T01:00:40;9.56;89.27
20862;DHT22;10591;52.532;13.348;2023-04-16T01:03:12;9.53;89.25
20862;DHT22;10591;52.532;13.348;2023-04-16T01:05:44;9.52;89.26
20862;DHT22;10591;52.532;13.348;2023-04-16T01:08:19;9.52;89.31
20862;DHT22;10591;52.532;13.348;2023-04-16T01:10:50;9.50;89.26
20862;DHT22;10591;52.532;13.348;2023-04-16T01:13:20;9.44;89.28
20862;DHT22;10591;52.532;13.348;2023-04-16T01:15:52;9.51;89.28
20862;DHT22;10591;52.532;13.348;2023-04-16T01:18:24;9.48;89.21
20862;DHT22;10591;52.532;13.348;2023-04-16T01:20:55;9.52;89.20
20862;DHT22;10591;52.532;13.348;2023-04-16T01:23:26;9.64;89.16
20862;DHT22;10591;52.532;13.348;2023-04-16T01:25:56;9.60;89.10
20862;DHT22;10591;52.532;13.348;2023-04-16T01:28:27;9.50;89.12
20862;DHT22;10591;52.532;13.348;2023-04-16T01:30:58;9.50;89.10
20862;DHT22;10591;52.532;13.348;2023-04-16T01:33:29;9.46;89.16
20862;DHT22;10591;52.532;13.348;2023-04-16T01:36:00;9.50;89.19
20862;DHT22;10591;52.532;13.348;2023-04-16T01:38:30;9.56;89.09
20862;DHT22;10591;52.532;13.348;2023-04-16T01:41:01;9.46;89.16
20862;DHT22;10591;52.532;13.348;2023-04-16T01:43:33;9.46;89.25
20862;DHT22;10591;52.532;13.348;2023-04-16T01:46:29;9.57;89.14
20862;DHT22;10591;52.532;13.348;2023-04-16T01:49:02;9.49;89.08
20862;DHT22;10591;52.532;13.348;2023-04-16T01:51:35;9.46;89.04
20862;DHT22;10591;52.532;13.348;2023-04-16T01:54:05;9.38;89.09
20862;DHT22;10591;52.532;13.348;2023-04-16T01:56:38;9.34;89.17
20862;DHT22;10591;52.532;13.348;2023-04-16T01:59:09;9.46;89.14
20862;DHT22;10591;52.532;13.348;2023-04-16T02:01:41;9.44;89.15
20862;DHT22;10591;52.532;13.348;2023-04-16T02:04:12;9.32;89.22
20862;DHT22;10591;52.532;13.348;2023-04-16T02:06:43;9.42;89.19
20862;DHT22;10591;52.532;13.348;2023-04-16T02:09:13;9.48;89.12
20862;DHT22;10591;52.532;13.348;2023-04-16T02:11:44;9.45;89.11
20862;DHT22;10591;52.532;13.348;2023-04-16T02:14:17;9.37;89.16
20862;DHT22;10591;52.532;13.348;2023-04-16T02:16:48;9.38;89.18
20862;DHT22;10591;52.532;13.348;2023-04-16T02:19:19;9.48;89.11
20862;DHT22;10591;52.532;13.348;2023-04-16T02:21:52;9.41;89.10
20862;DHT22;10591;52.532;13.348;2023-04-16T02:24:23;9.32;89.07
20862;DHT22;10591;52.532;13.348;2023-04-16T02:26:54;9.25;89.24
20862;DHT22;10591;52.532;13.348;2023-04-16T02:29:26;9.28;89.18
20862;DHT22;10591;52.532;13.348;2023-04-16T02:31:57;9.21;89.14
20862;DHT22;10591;52.532;13.348;2023-04-16T02:34:31;9.34;89.13
20862;DHT22;10591;52.532;13.348;2023-04-16T02:37:03;9.36;89.18
20862;DHT22;10591;52.532;13.348;2023-04-16T02:39:34;9.37;89.13
20862;DHT22;10591;52.532;13.348;2023-04-16T02:42:08;9.28;89.11
20862;DHT22;10591;52.532;13.348;2023-04-16T02:44:40;9.34;89.04
20862;DHT22;10591;52.532;13.348;2023-04-16T02:47:13;9.31;89.03
20862;DHT22;10591;52.532;13.348;2023-04-16T02:49:45;9.32;89.10
20862;DHT22;10591;52.532;13.348;2023-04-16T02:52:20;9.16;89.08
20862;DHT22;10591;52.532;13.348;2023-04-16T02:54:53;9.19;89.13
20862;DHT22;10591;52.532;13.348;2023-04-16T02:57:24;9.15;89.19
20862;DHT22;10591;52.532;13.348;2023-04-16T02:59:56;9.22;89.14
20862;DHT22;10591;52.532;13.348;2023-04-16T03:02:28;9.15;89.14
20862;DHT22;10591;52.532;13.348;2023-04-16T03:04:59;9.08;89.24
20862;DHT22;10591;52.532;13.348;2023-04-16T03:07:29;9.14;89.19
20862;DHT22;10591;52.532;13.348;2023-04-16T03:10:00;9.14;89.19
20862;DHT22;10591;52.532;13.348;2023-04-16T03:12:31;9.06;89.19
20862;DHT22;10591;52.532;13.348;2023-04-16T03:15:02;9.10;89.26
20862;DHT22;10591;52.532;13.348;2023-04-16T03:17:33;9.10;89.15
20862;DHT22;10591;52.532;13.348;2023-04-16T03:20:06;8.98;89.13
20862;DHT22;10591;52.532;13.348;2023-04-16T03:22:38;9.04;89.17
20862;DHT22;10591;52.532;13.348;2023-04-16T03:25:09;9.00;89.15
20862;DHT22;10591;52.532;13.348;2023-04-16T03:27:39;9.00;89.18
20862;DHT22;10591;52.532;13.348;2023-04-16T03:30:11;8.94;89.16
20862;DHT22;10591;52.532;13.348;2023-04-16T03:32:42;8.91;89.15
20862;DHT22;10591;52.532;13.348;2023-04-16T03:35:13;9.10;89.09
20862;DHT22;10591;52.532;13.348;2023-04-16T03:37:44;9.05;88.99
20862;DHT22;10591;52.532;13.348;2023-04-16T03:40:15;9.04;89.05
20862;DHT22;10591;52.532;13.348;2023-04-16T03:42:48;8.95;88.94
20862;DHT22;10591;52.532;13.348;2023-04-16T03:45:18;8.85;89.05
20862;DHT22;10591;52.532;13.348;2023-04-16T03:47:52;8.96;89.06
20862;DHT22;10591;52.532;13.348;2023-04-16T03:50:23;9.05;88.97
20862;DHT22;10591;52.532;13.348;2023-04-16T03:52:54;8.90;88.82
20862;DHT22;10591;52.532;13.348;2023-04-16T03:55:25;8.94;88.89
20862;DHT22;10591;52.532;13.348;2023-04-16T03:57:56;8.96;88.90
20862;DHT22;10591;52.532;13.348;2023-04-16T04:00:26;9.02;88.98
20862;DHT22;10591;52.532;13.348;2023-04-16T04:02:57;8.96;88.88
20862;DHT22;10591;52.532;13.348;2023-04-16T04:05:29;8.92;88.89
20862;DHT22;10591;52.532;13.348;2023-04-16T04:08:01;8.87;88.92
20862;DHT22;10591;52.532;13.348;2023-04-16T04:10:33;8.91;88.89
20862;DHT22;10591;52.532;13.348;2023-04-16T04:13:05;9.02;88.96
20862;DHT22;10591;52.532;13.348;2023-04-16T04:15:39;8.99;88.84
20862;DHT22;10591;52.532;13.348;2023-04-16T04:18:09;8.89;88.91
20862;DHT22;10591;52.532;13.348;2023-04-16T04:20:40;8.90;88.86
20862;DHT22;10591;52.532;13.348;2023-04-16T04:23:11;8.90;88.93
20862;DHT22;10591;52.532;13.348;2023-04-16T04:25:43;8.75;88.93
20862;DHT22;10591;52.532;13.348;2023-04-16T04:28:15;8.96;88.94
20862;DHT22;10591;52.532;13.348;2023-04-16T04:30:45;8.84;88.96
20862;DHT22;10591;52.532;13.348;2023-04-16T04:33:17;8.80;88.95
20862;DHT22;10591;52.532;13.348;2023-04-16T04:35:47;8.82;88.95
20862;DHT22;10591;52.532;13.348;2023-04-16T04:38:19;8.82;89.09
20862;DHT22;10591;52.532;13.348;2023-04-16T04:40:52;8.81;89.04
20862;DHT22;10591;52.532;13.348;2023-04-16T04:43:23;8.80;88.95
20862;DHT22;10591;52.532;13.348;2023-04-16T04:45:54;8.82;89.04
20862;DHT22;10591;52.532;13.348;2023-04-16T04:48:25;8.84;88.96
20862;DHT22;10591;52.532;13.348;2023-04-16T04:50:58;8.84;89.11
20862;DHT22;10591;52.532;13.348;2023-04-16T04:53:28;8.82;89.09
20862;DHT22;10591;52.532;13.348;2023-04-16T04:55:59;8.92;88.98
20862;DHT22;10591;52.532;13.348;2023-04-16T04:58:31;8.92;88.93
20862;DHT22;10591;52.532;13.348;2023-04-16T05:01:04;8.78;88.99
20862;DHT22;10591;52.532;13.348;2023-04-16T05:03:35;8.82;89.00
20862;DHT22;10591;52.532;13.348;2023-04-16T05:06:06;8.84;88.96
20862;DHT22;10591;52.532;13.348;2023-04-16T05:08:37;8.85;88.78
20862;DHT22;10591;52.532;13.348;2023-04-16T05:11:07;8.84;88.91
20862;DHT22;10591;52.532;13.348;2023-04-16T05:13:39;8.84;89.02
20862;DHT22;10591;52.532;13.348;2023-04-16T05:16:10;8.95;89.05
20862;DHT22;10591;52.532;13.348;2023-04-16T05:18:41;8.96;88.90
20862;DHT22;10591;52.532;13.348;2023-04-16T05:21:12;8.97;88.82
20862;DHT22;10591;52.532;13.348;2023-04-16T05:23:43;8.97;88.75
20862;DHT22;10591;52.532;13.348;2023-04-16T05:26:15;9.08;88.81
20862;DHT22;10591;52.532;13.348;2023-04-16T05:28:46;8.94;88.76
20862;DHT22;10591;52.532;13.348;2023-04-16T05:31:17;9.04;88.65
20862;DHT22;10591;52.532;13.348;2023-04-16T05:33:49;8.94;88.62
20862;DHT22;10591;52.532;13.348;2023-04-16T05:36:20;8.90;88.78
20862;DHT22;10591;52.532;13.348;2023-04-16T05:38:51;9.00;88.84
20862;DHT22;10591;52.532;13.348;2023-04-16T05:41:25;8.79;88.81
20862;DHT22;10591;52.532;13.348;2023-04-16T05:43:56;8.90;88.93
20862;DHT22;10591;52.532;13.348;2023-04-16T05:46:27;8.98;88.86
20862;DHT22;10591;52.532;13.348;2023-04-16T05:48:58;8.94;88.91
20862;DHT22;10591;52.532;13.348;2023-04-16T05:51:29;9.02;89.00
20862;DHT22;10591;52.532;13.348;2023-04-16T05:54:00;8.93;88.84
20862;DHT22;10591;52.532;13.348;2023-04-16T05:56:31;9.00;88.81
20862;DHT22;10591;52.532;13.348;2023-04-16T05:59:01;9.04;88.88
20862;DHT22;10591;52.532;13.348;2023-04-16T06:01:32;9.02;88.80
20862;DHT22;10591;52.532;13.348;2023-04-16T06:04:03;9.05;88.85
20862;DHT22;10591;52.532;13.348;2023-04-16T06:06:34;9.18;88.82
20862;DHT22;10591;52.532;13.348;2023-04-16T06:09:05;9.21;88.69
20862;DHT22;10591;52.532;13.348;2023-04-16T06:11:37;9.26;88.66
20862;DHT22;10591;52.532;13.348;2023-04-16T06:14:07;9.12;88.70
20862;DHT22;10591;52.532;13.348;2023-04-16T06:16:39;9.11;88.66
20862;DHT22;10591;52.532;13.348;2023-04-16T06:19:11;9.33;88.81
20862;DHT22;10591;52.532;13.348;2023-04-16T06:21:43;9.34;88.59
20862;DHT22;10591;52.532;13.348;2023-04-16T06:24:13;9.24;88.21
20862;DHT22;10591;52.532;13.348;2023-04-16T06:26:46;9.22;88.47
20862;DHT22;10591;52.532;13.348;2023-04-16T06:29:16;9.20;88.56
20862;DHT22;10591;52.532;13.348;2023-04-16T06:31:47;9.26;88.44
20862;DHT22;10591;52.532;13.348;2023-04-16T06:34:18;9.40;88.45
20862;DHT22;10591;52.532;13.348;2023-04-16T06:36:51;9.30;88.36
20862;DHT22;10591;52.532;13.348;2023-04-16T06:39:21;9.30;88.14
20862;DHT22;10591;52.532;13.348;2023-04-16T06:41:51;9.40;88.25
20862;DHT22;10591;52.532;13.348;2023-04-16T06:44:22;9.37;88.27
20862;DHT22;10591;52.532;13.348;2023-04-16T06:46:54;9.28;88.17
20862;DHT22;10591;52.532;13.348;2023-04-16T06:49:25;9.21;88.61
20862;DHT22;10591;52.532;13.348;2023-04-16T06:51:56;9.30;88.69
20862;DHT22;10591;52.532;13.348;2023-04-16T06:54:27;9.42;88.43
20862;DHT22;10591;52.532;13.348;2023-04-16T06:56:59;9.24;88.30
20862;DHT22;10591;52.532;13.348;2023-04-16T06:59:30;9.20;88.42
20862;DHT22;10591;52.532;13.348;2023-04-16T07:02:02;9.37;88.35
20862;DHT22;10591;52.532;13.348;2023-04-16T07:04:34;9.44;88.40
20862;DHT22;10591;52.532;13.348;2023-04-16T07:07:07;9.25;88.35
20862;DHT22;10591;52.532;13.348;2023-04-16T07:09:37;9.36;88.26
20862;DHT22;10591;52.532;13.348;2023-04-16T07:12:08;9.25;88.52
20862;DHT22;10591;52.532;13.348;2023-04-16T07:14:42;9.26;88.48
20862;DHT22;10591;52.532;13.348;2023-04-16T07:17:14;9.34;88.48
20862;DHT22;10591;52.532;13.348;2023-04-16T07:19:46;9.36;88.44
20862;DHT22;10591;52.532;13.348;2023-04-16T07:22:18;9.33;88.37
20862;DHT22;10591;52.532;13.348;2023-04-16T07:24:48;9.41;88.34
20862;DHT22;10591;52.532;13.348;2023-04-16T07:27:19;9.40;88.38
20862;DHT22;10591;52.532;13.348;2023-04-16T07:29:50;9.25;88.49
20862;DHT22;10591;52.532;13.348;2023-04-16T07:32:21;9.22;88.47
20862;DHT22;10591;52.532;13.348;2023-04-16T07:34:53;9.32;88.57
20862;DHT22;10591;52.532;13.348;2023-04-16T07:37:26;9.33;88.54
20862;DHT22;10591;52.532;13.348;2023-04-16T07:39:58;9.36;88.50
20862;DHT22;10591;52.532;13.348;2023-04-16T07:42:29;9.58;88.55
20862;DHT22;10591;52.532;13.348;2023-04-16T07:45:00;9.54;88.26
20862;DHT22;10591;52.532;13.348;2023-04-16T07:47:30;9.58;88.25
20862;DHT22;10591;52.532;13.348;2023-04-16T07:50:02;9.58;87.98
20862;DHT22;10591;52.532;13.348;2023-04-16T07:52:33;9.54;88.11
20862;DHT22;10591;52.532;13.348;2023-04-16T07:55:04;9.58;88.13
20862;DHT22;10591;52.532;13.348;2023-04-16T07:57:35;9.46;88.11
20862;DHT22;10591;52.532;13.348;2023-04-16T08:00:07;9.61;88.21
20862;DHT22;10591;52.532;13.348;2023-04-16T08:02:39;9.54;88.37
20862;DHT22;10591;52.532;13.348;2023-04-16T08:05:11;9.62;88.31
20862;DHT22;10591;52.532;13.348;2023-04-16T08:07:43;9.52;88.29
20862;DHT22;10591;52.532;13.348;2023-04-16T08:10:14;9.38;88.34
20862;DHT22;10591;52.532;13.348;2023-04-16T08:12:47;9.49;88.31
20862;DHT22;10591;52.532;13.348;2023-04-16T08:15:17;9.46;88.08
20862;DHT22;10591;52.532;13.348;2023-04-16T08:17:49;9.38;88.15
20862;DHT22;10591;52.532;13.348;2023-04-16T08:20:20;9.48;88.31
20862;DHT22;10591;52.532;13.348;2023-04-16T08:22:52;9.34;88.62
20862;DHT22;10591;52.532;13.348;2023-04-16T08:25:24;9.36;88.64
20862;DHT22;10591;52.532;13.348;2023-04-16T08:27:55;9.46;88.66
20862;DHT22;10591;52.532;13.348;2023-04-16T08:30:30;9.38;88.57
20862;DHT22;10591;52.532;13.348;2023-04-16T08:33:01;9.35;88.60
20862;DHT22;10591;52.532;13.348;2023-04-16T08:35:32;9.38;88.62
20862;DHT22;10591;52.532;13.348;2023-04-16T08:38:03;9.40;88.61
20862;DHT22;10591;52.532;13.348;2023-04-16T08:40:41;9.52;88.68
20862;DHT22;10591;52.532;13.348;2023-04-16T08:43:12;9.56;88.69
20862;DHT22;10591;52.532;13.348;2023-04-16T08:45:45;9.62;88.61
20862;DHT22;10591;52.532;13.348;2023-04-16T08:48:18;9.37;88.51
20862;DHT22;10591;52.532;13.348;2023-04-16T08:50:52;9.40;88.58
20862;DHT22;10591;52.532;13.348;2023-04-16T08:53:31;9.40;88.51
20862;DHT22;10591;52.532;13.348;2023-04-16T08:56:02;9.38;88.47
20862;DHT22;10591;52.532;13.348;2023-04-16T08:58:33;9.42;88.66
20862;DHT22;10591;52.532;13.348;2023-04-16T09:01:08;9.50;88.68
20862;DHT22;10591;52.532;13.348;2023-04-16T09:03:40;9.57;88.74
20862;DHT22;10591;52.532;13.348;2023-04-16T09:06:11;9.76;88.47
20862;DHT22;10591;52.532;13.348;2023-04-16T09:08:44;9.70;88.55
20862;DHT22;10591;52.532;13.348;2023-04-16T09:11:16;10.06;88.23
20862;DHT22;10591;52.532;13.348;2023-04-16T09:13:47;10.16;87.94
20862;DHT22;10591;52.532;13.348;2023-04-16T09:16:19;10.06;87.60
20862;DHT22;10591;52.532;13.348;2023-04-16T09:18:51;10.15;87.58
20862;DHT22;10591;52.532;13.348;2023-04-16T09:21:22;10.23;87.53
20862;DHT22;10591;52.532;13.348;2023-04-16T09:23:53;10.16;87.22
20862;DHT22;10591;52.532;13.348;2023-04-16T09:26:25;10.14;87.25
20862;DHT22;10591;52.532;13.348;2023-04-16T09:28:57;10.20;87.42
20862;DHT22;10591;52.532;13.348;2023-04-16T09:31:28;10.14;87.57
20862;DHT22;10591;52.532;13.348;2023-04-16T09:34:08;10.36;86.99
20862;DHT22;10591;52.532;13.348;2023-04-16T09:36:39;10.12;86.79
20862;DHT22;10591;52.532;13.348;2023-04-16T09:39:17;10.10;87.06
20862;DHT22;10591;52.532;13.348;2023-04-16T09:41:43;10.00;87.26
20862;DHT22;10591;52.532;13.348;2023-04-16T09:44:16;9.97;87.45
20862;DHT22;10591;52.532;13.348;2023-04-16T09:46:46;9.94;87.32
20862;DHT22;10591;52.532;13.348;2023-04-16T09:49:19;10.08;87.47
20862;DHT22;10591;52.532;13.348;2023-04-16T09:51:49;10.20;87.59
20862;DHT22;10591;52.532;13.348;2023-04-16T09:54:24;10.12;87.07
20862;DHT22;10591;52.532;13.348;2023-04-16T09:56:56;10.30;87.00
20862;DHT22;10591;52.532;13.348;2023-04-16T09:59:27;10.30;86.46
20862;DHT22;10591;52.532;13.348;2023-04-16T10:02:02;10.18;86.53
20862;DHT22;10591;52.532;13.348;2023-04-16T10:04:50;10.24;86.68
20862;DHT22;10591;52.532;13.348;2023-04-16T10:07:22;10.44;86.45
20862;DHT22;10591;52.532;13.348;2023-04-16T10:09:54;10.56;85.65
20862;DHT22;10591;52.532;13.348;2023-04-16T10:12:43;10.88;85.63
20862;DHT22;10591;52.532;13.348;2023-04-16T10:15:21;11.01;84.96
20862;DHT22;10591;52.532;13.348;2023-04-16T10:17:57;11.10;84.67
20862;DHT22;10591;52.532;13.348;2023-04-16T10:20:29;11.23;83.95
20862;DHT22;10591;52.532;13.348;2023-04-16T10:23:01;10.86;84.69
20862;DHT22;10591;52.532;13.348;2023-04-16T10:25:32;10.96;84.76
20862;DHT22;10591;52.532;13.348;2023-04-16T10:28:04;10.68;84.92
20862;DHT22;10591;52.532;13.348;2023-04-16T10:30:37;10.54;85.34
20862;DHT22;10591;52.532;13.348;2023-04-16T10:33:08;10.46;85.44
20862;DHT22;10591;52.532;13.348;2023-04-16T10:35:41;10.74;84.97
20862;DHT22;10591;52.532;13.348;2023-04-16T10:38:26;10.73;84.47
20862;DHT22;10591;52.532;13.348;2023-04-16T10:41:03;10.80;84.35
20862;DHT22;10591;52.532;13.348;2023-04-16T10:43:45;11.01;84.11
20862;DHT22;10591;52.532;13.348;2023-04-16T10:46:34;11.30;83.61
20862;DHT22;10591;52.532;13.348;2023-04-16T10:49:18;11.52;82.91
20862;DHT22;10591;52.532;13.348;2023-04-16T10:51:54;11.85;82.18
20862;DHT22;10591;52.532;13.348;2023-04-16T10:54:27;11.68;81.91
20862;DHT22;10591;52.532;13.348;2023-04-16T10:57:02;11.66;82.35
20862;DHT22;10591;52.532;13.348;2023-04-16T10:59:40;12.01;81.03
20862;DHT22;10591;52.532;13.348;2023-04-16T11:02:15;12.40;80.53
20862;DHT22;10591;52.532;13.348;2023-04-16T11:04:50;12.40;79.80
20862;DHT22;10591;52.532;13.348;2023-04-16T11:07:32;12.48;79.40
20862;DHT22;10591;52.532;13.348;2023-04-16T11:10:07;12.78;78.18
20862;DHT22;10591;52.532;13.348;2023-04-16T11:12:47;12.98;78.73
20862;DHT22;10591;52.532;13.348;2023-04-16T11:15:19;13.42;77.61
20862;DHT22;10591;52.532;13.348;2023-04-16T11:17:51;13.22;77.82
20862;DHT22;10591;52.532;13.348;2023-04-16T11:20:25;13.20;77.60
20862;DHT22;10591;52.532;13.348;2023-04-16T11:22:57;13.10;77.95
20862;DHT22;10591;52.532;13.348;2023-04-16T11:25:29;12.65;77.46
20862;DHT22;10591;52.532;13.348;2023-04-16T11:28:04;12.04;80.27
20862;DHT22;10591;52.532;13.348;2023-04-16T11:30:36;12.14;80.32
20862;DHT22;10591;52.532;13.348;2023-04-16T11:33:10;11.87;80.96
20862;DHT22;10591;52.532;13.348;2023-04-16T11:35:58;11.85;81.05
20862;DHT22;10591;52.532;13.348;2023-04-16T11:38:38;11.58;81.52
20862;DHT22;10591;52.532;13.348;2023-04-16T11:41:05;11.46;82.10
20862;DHT22;10591;52.532;13.348;2023-04-16T11:43:36;11.11;82.94
20862;DHT22;10591;52.532;13.348;2023-04-16T11:46:08;11.32;82.51
20862;DHT22;10591;52.532;13.348;2023-04-16T11:48:51;11.42;82.29
20862;DHT22;10591;52.532;13.348;2023-04-16T11:51:24;11.52;81.54
20862;DHT22;10591;52.532;13.348;2023-04-16T11:53:55;11.56;81.01
20862;DHT22;10591;52.532;13.348;2023-04-16T11:56:32;11.72;80.82
20862;DHT22;10591;52.532;13.348;2023-04-16T11:59:10;11.80;81.09
20862;DHT22;10591;52.532;13.348;2023-04-16T12:01:51;11.71;81.33
20862;DHT22;10591;52.532;13.348;2023-04-16T12:04:18;11.42;81.89
20862;DHT22;10591;52.532;13.348;2023-04-16T12:07:09;10.97;82.86
20862;DHT22;10591;52.532;13.348;2023-04-16T12:09:42;10.86;83.41
20862;DHT22;10591;52.532;13.348;2023-04-16T12:12:27;10.86;83.00
20862;DHT22;10591;52.532;13.348;2023-04-16T12:15:01;10.72;83.58
20862;DHT22;10591;52.532;13.348;2023-04-16T12:17:34;10.78;83.53
20862;DHT22;10591;52.532;13.348;2023-04-16T12:20:13;10.70;83.21
20862;DHT22;10591;52.532;13.348;2023-04-16T12:22:47;10.72;82.90
20862;DHT22;10591;52.532;13.348;2023-04-16T12:25:18;10.70;82.90
20862;DHT22;10591;52.532;13.348;2023-04-16T12:27:51;10.86;82.60
20862;DHT22;10591;52.532;13.348;2023-04-16T12:30:24;10.86;82.25
20862;DHT22;10591;52.532;13.348;2023-04-16T12:33:14;10.82;82.90
20862;DHT22;10591;52.532;13.348;2023-04-16T12:35:48;10.88;82.99
20862;DHT22;10591;52.532;13.348;2023-04-16T12:38:21;10.96;82.13
20862;DHT22;10591;52.532;13.348;2023-04-16T12:40:56;10.88;82.45
20862;DHT22;10591;52.532;13.348;2023-04-16T12:43:28;10.96;82.62
20862;DHT22;10591;52.532;13.348;2023-04-16T12:45:59;11.03;82.55
20862;DHT22;10591;52.532;13.348;2023-04-16T12:48:33;10.98;82.79
20862;DHT22;10591;52.532;13.348;2023-04-16T12:51:10;10.92;82.68
20862;DHT22;10591;52.532;13.348;2023-04-16T12:53:42;10.94;82.71
20862;DHT22;10591;52.532;13.348;2023-04-16T12:56:17;10.84;83.40
20862;DHT22;10591;52.532;13.348;2023-04-16T12:58:49;10.73;83.19
20862;DHT22;10591;52.532;13.348;2023-04-16T13:01:21;10.59;83.66
20862;DHT22;10591;52.532;13.348;2023-04-16T13:03:54;10.47;83.93
20862;DHT22;10591;52.532;13.348;2023-04-16T13:06:30;10.38;84.52
20862;DHT22;10591;52.532;13.348;2023-04-16T13:09:06;10.31;84.75
20862;DHT22;10591;52.532;13.348;2023-04-16T13:11:39;10.46;84.41
20862;DHT22;10591;52.532;13.348;2023-04-16T13:14:12;10.44;84.54
20862;DHT22;10591;52.532;13.348;2023-04-16T13:16:46;10.50;83.94
20862;DHT22;10591;52.532;13.348;2023-04-16T13:19:19;10.65;84.19
20862;DHT22;10591;52.532;13.348;2023-04-16T13:21:49;10.90;83.44
20862;DHT22;10591;52.532;13.348;2023-04-16T13:24:22;10.94;82.99
20862;DHT22;10591;52.532;13.348;2023-04-16T13:26:54;11.04;81.98
20862;DHT22;10591;52.532;13.348;2023-04-16T13:29:24;11.25;82.15
20862;DHT22;10591;52.532;13.348;2023-04-16T13:31:56;11.41;81.56
20862;DHT22;10591;52.532;13.348;2023-04-16T13:34:28;11.68;81.15
20862;DHT22;10591;52.532;13.348;2023-04-16T13:36:58;11.73;80.00
20862;DHT22;10591;52.532;13.348;2023-04-16T13:39:30;11.54;80.68
20862;DHT22;10591;52.532;13.348;2023-04-16T13:42:02;11.73;80.13
20862;DHT22;10591;52.532;13.348;2023-04-16T13:44:36;11.65;79.60
20862;DHT22;10591;52.532;13.348;2023-04-16T13:47:06;11.58;79.95
20862;DHT22;10591;52.532;13.348;2023-04-16T13:49:37;11.88;79.50
20862;DHT22;10591;52.532;13.348;2023-04-16T13:52:08;11.68;79.87
20862;DHT22;10591;52.532;13.348;2023-04-16T13:54:42;11.64;79.53
20862;DHT22;10591;52.532;13.348;2023-04-16T13:57:14;11.65;79.59
20862;DHT22;10591;52.532;13.348;2023-04-16T13:59:45;11.72;79.52
20862;DHT22;10591;52.532;13.348;2023-04-16T14:02:16;11.96;79.41
20862;DHT22;10591;52.532;13.348;2023-04-16T14:04:47;12.03;78.32
20862;DHT22;10591;52.532;13.348;2023-04-16T14:07:21;12.01;78.62
20862;DHT22;10591;52.532;13.348;2023-04-16T14:09:55;11.82;79.14
20862;DHT22;10591;52.532;13.348;2023-04-16T14:12:27;11.65;79.55
20862;DHT22;10591;52.532;13.348;2023-04-16T14:15:00;11.94;79.54
20862;DHT22;10591;52.532;13.348;2023-04-16T14:17:32;11.92;79.72
20862;DHT22;10591;52.532;13.348;2023-04-16T14:20:03;11.98;79.02
20862;DHT22;10591;52.532;13.348;2023-04-16T14:22:35;12.07;78.18
20862;DHT22;10591;52.532;13.348;2023-04-16T14:25:06;12.00;78.24
20862;DHT22;10591;52.532;13.348;2023-04-16T14:27:39;11.94;78.53
20862;DHT22;10591;52.532;13.348;2023-04-16T14:30:11;11.90;78.97
20862;DHT22;10591;52.532;13.348;2023-04-16T14:32:41;11.87;78.84
20862;DHT22;10591;52.532;13.348;2023-04-16T14:35:14;12.00;78.82
20862;DHT22;10591;52.532;13.348;2023-04-16T14:37:55;11.89;79.28
20862;DHT22;10591;52.532;13.348;2023-04-16T14:40:27;11.76;77.91
20862;DHT22;10591;52.532;13.348;2023-04-16T14:42:58;11.54;78.11
20862;DHT22;10591;52.532;13.348;2023-04-16T14:45:30;11.40;78.74
20862;DHT22;10591;52.532;13.348;2023-04-16T14:48:00;11.38;78.73
20862;DHT22;10591;52.532;13.348;2023-04-16T14:50:33;11.31;79.42
20862;DHT22;10591;52.532;13.348;2023-04-16T14:53:12;11.38;79.46
20862;DHT22;10591;52.532;13.348;2023-04-16T14:55:43;11.36;78.98
20862;DHT22;10591;52.532;13.348;2023-04-16T14:58:14;11.18;80.01
20862;DHT22;10591;52.532;13.348;2023-04-16T15:00:45;10.98;79.99
20862;DHT22;10591;52.532;13.348;2023-04-16T15:03:18;10.86;80.60
20862;DHT22;10591;52.532;13.348;2023-04-16T15:05:49;10.70;81.39
20862;DHT22;10591;52.532;13.348;2023-04-16T15:08:22;10.58;82.14
20862;DHT22;10591;52.532;13.348;2023-04-16T15:10:53;10.54;82.04
20862;DHT22;10591;52.532;13.348;2023-04-16T15:13:27;10.41;82.30
20862;DHT22;10591;52.532;13.348;2023-04-16T15:16:00;10.54;82.59
20862;DHT22;10591;52.532;13.348;2023-04-16T15:18:31;10.52;82.34
20862;DHT22;10591;52.532;13.348;2023-04-16T15:21:03;10.55;82.51
20862;DHT22;10591;52.532;13.348;2023-04-16T15:23:34;10.64;82.21
20862;DHT22;10591;52.532;13.348;2023-04-16T15:26:05;10.76;82.10
20862;DHT22;10591;52.532;13.348;2023-04-16T15:28:37;10.65;82.12
20862;DHT22;10591;52.532;13.348;2023-04-16T15:31:08;10.78;82.23
20862;DHT22;10591;52.532;13.348;2023-04-16T15:33:38;10.92;81.76
20862;DHT22;10591;52.532;13.348;2023-04-16T15:36:09;10.84;81.86
20862;DHT22;10591;52.532;13.348;2023-04-16T15:38:40;10.64;82.01
20862;DHT22;10591;52.532;13.348;2023-04-16T15:41:11;10.75;81.87
20862;DHT22;10591;52.532;13.348;2023-04-16T15:43:43;10.96;81.60
20862;DHT22;10591;52.532;13.348;2023-04-16T15:46:15;10.82;82.00
20862;DHT22;10591;52.532;13.348;2023-04-16T15:48:45;10.83;81.84
20862;DHT22;10591;52.532;13.348;2023-04-16T15:51:17;10.92;81.93
20862;DHT22;10591;52.532;13.348;2023-04-16T15:53:47;10.76;81.82
20862;DHT22;10591;52.532;13.348;2023-04-16T15:56:18;10.82;81.67
20862;DHT22;10591;52.532;13.348;2023-04-16T15:58:52;10.74;82.42